createdAt,value
2023-06-15T00:00:08.651Z,269.00
2023-06-15T00:01:13.087Z,269.00
2023-06-15T00:02:16.554Z,269.00
2023-06-15T00:03:19.147Z,269.00
2023-06-15T00:04:22.636Z,268.33
2023-06-15T00:05:24.878Z,268.00
2023-06-15T00:06:28.905Z,268.00
2023-06-15T00:07:31.339Z,267.17
2023-06-15T00:08:35.602Z,266.33
2023-06-15T00:09:37.845Z,265.33
2023-06-15T00:10:42.372Z,264.33
2023-06-15T00:11:44.783Z,264.00
2023-06-15T00:12:47.896Z,263.00
2023-06-15T00:13:50.072Z,262.83
2023-06-15T00:14:53.220Z,261.67
2023-06-15T00:15:55.679Z,260.33
2023-06-15T00:16:58.998Z,258.67
2023-06-15T00:18:01.196Z,257.33
2023-06-15T00:19:05.030Z,257.00
2023-06-15T00:20:09.359Z,256.33
2023-06-15T00:21:14.750Z,256.00
2023-06-15T00:22:16.920Z,256.00
2023-06-15T00:23:20.042Z,255.17
2023-06-15T00:24:22.226Z,254.83
2023-06-15T00:25:25.511Z,253.83
2023-06-15T00:26:29.040Z,253.00
2023-06-15T00:27:32.181Z,252.67
2023-06-15T00:28:34.504Z,252.00
2023-06-15T00:29:37.680Z,251.33
2023-06-15T00:30:39.828Z,251.00
2023-06-15T00:31:43.052Z,251.00
2023-06-15T00:32:45.856Z,249.67
2023-06-15T00:33:49.038Z,249.00
2023-06-15T00:34:51.230Z,249.50
2023-06-15T00:35:54.376Z,250.50
2023-06-15T00:36:56.557Z,251.33
2023-06-15T00:37:59.768Z,252.33
2023-06-15T00:39:02.026Z,253.50
2023-06-15T00:40:07.245Z,254.67
2023-06-15T00:41:09.747Z,255.67
2023-06-15T00:42:14.236Z,256.33
2023-06-15T00:43:16.813Z,257.33
2023-06-15T00:44:19.981Z,258.00
2023-06-15T00:45:22.220Z,258.00
2023-06-15T00:46:25.636Z,258.00
2023-06-15T00:47:28.318Z,258.00
2023-06-15T00:48:32.126Z,258.67
2023-06-15T00:49:34.429Z,259.00
2023-06-15T00:50:39.268Z,260.00
2023-06-15T00:51:41.625Z,260.50
2023-06-15T00:52:45.369Z,261.00
2023-06-15T00:53:47.757Z,261.00
2023-06-15T00:54:52.341Z,261.00
2023-06-15T00:55:54.688Z,260.17
2023-06-15T00:56:58.129Z,259.67
2023-06-15T00:58:02.609Z,258.67
2023-06-15T00:59:06.080Z,257.50
2023-06-15T01:00:11.396Z,256.17
2023-06-15T01:01:14.637Z,254.83
2023-06-15T01:02:17.749Z,253.83
2023-06-15T01:03:22.004Z,252.83
2023-06-15T01:04:25.799Z,251.50
2023-06-15T01:05:29.021Z,250.33
2023-06-15T01:06:33.376Z,248.67
2023-06-15T01:07:36.939Z,246.00
2023-06-15T01:08:39.772Z,243.67
2023-06-15T01:09:44.581Z,243.00
2023-06-15T01:10:46.942Z,241.83
2023-06-15T01:11:54.094Z,240.17
2023-06-15T01:12:58.472Z,240.00
2023-06-15T01:14:02.654Z,240.33
2023-06-15T01:15:06.766Z,241.00
2023-06-15T01:16:14.349Z,241.00
2023-06-15T01:17:24.864Z,240.67
2023-06-15T01:18:30.908Z,240.00
2023-06-15T01:19:55.046Z,239.00
2023-06-15T01:20:58.118Z,239.00
2023-06-15T01:22:10.111Z,238.83
2023-06-15T01:23:34.467Z,238.00
2023-06-15T01:24:38.033Z,237.33
2023-06-15T01:25:50.290Z,236.00
2023-06-15T01:26:55.499Z,234.50
2023-06-15T01:28:02.312Z,233.00
2023-06-15T01:29:04.908Z,231.50
2023-06-15T01:30:10.030Z,229.83
2023-06-15T01:31:13.839Z,227.50
2023-06-15T01:32:17.191Z,225.50
2023-06-15T01:33:19.518Z,222.33
2023-06-15T01:34:22.733Z,217.33
2023-06-15T01:35:24.895Z,213.83
2023-06-15T01:36:28.123Z,210.67
2023-06-15T01:37:30.330Z,210.83
2023-06-15T01:38:33.585Z,210.50
2023-06-15T01:39:35.844Z,209.17
2023-06-15T01:40:40.344Z,210.00
2023-06-15T01:41:42.604Z,209.33
2023-06-15T01:42:47.532Z,209.33
2023-06-15T01:43:50.178Z,210.00
2023-06-15T01:44:54.554Z,209.67
2023-06-15T01:45:57.745Z,209.00
2023-06-15T01:47:01.068Z,209.00
2023-06-15T01:48:03.979Z,209.33
2023-06-15T01:49:07.487Z,209.50
2023-06-15T01:50:10.882Z,209.00
2023-06-15T01:51:14.441Z,208.17
2023-06-15T01:52:17.085Z,207.17
2023-06-15T01:53:20.353Z,205.50
2023-06-15T01:54:22.680Z,204.17
2023-06-15T01:55:27.099Z,203.67
2023-06-15T01:56:30.420Z,204.00
2023-06-15T01:57:38.693Z,204.00
2023-06-15T01:58:43.786Z,204.00
2023-06-15T01:59:46.078Z,204.00
2023-06-15T02:00:49.312Z,202.83
2023-06-15T02:01:51.558Z,201.00
2023-06-15T02:02:54.888Z,198.83
2023-06-15T02:03:58.141Z,196.83
2023-06-15T02:05:00.579Z,195.50
2023-06-15T02:06:03.791Z,195.00
2023-06-15T02:07:06.210Z,195.00
2023-06-15T02:08:09.700Z,195.83
2023-06-15T02:09:12.158Z,196.00
2023-06-15T02:10:16.320Z,196.00
2023-06-15T02:11:19.930Z,196.00
2023-06-15T02:12:23.202Z,196.00
2023-06-15T02:13:25.432Z,196.00
2023-06-15T02:14:29.921Z,196.00
2023-06-15T02:15:32.112Z,195.67
2023-06-15T02:16:36.435Z,193.50
2023-06-15T02:17:41.020Z,189.33
2023-06-15T02:18:46.576Z,183.83
2023-06-15T02:19:49.042Z,177.50
2023-06-15T02:20:52.321Z,171.83
2023-06-15T02:21:54.829Z,170.00
2023-06-15T02:22:58.566Z,170.67
2023-06-15T02:24:00.797Z,171.33
2023-06-15T02:25:04.361Z,172.67
2023-06-15T02:26:07.045Z,173.00
2023-06-15T02:27:10.188Z,173.00
2023-06-15T02:28:12.460Z,173.00
2023-06-15T02:29:16.114Z,173.67
2023-06-15T02:30:19.687Z,174.00
2023-06-15T02:31:23.330Z,174.00
2023-06-15T02:32:33.126Z,174.00
2023-06-15T02:33:36.807Z,174.00
2023-06-15T02:34:39.311Z,174.00
2023-06-15T02:35:42.434Z,174.00
2023-06-15T02:36:44.816Z,174.00
2023-06-15T02:37:48.162Z,174.00
2023-06-15T02:38:50.437Z,173.67
2023-06-15T02:39:53.643Z,173.00
2023-06-15T02:40:56.141Z,173.50
2023-06-15T02:41:59.392Z,175.50
2023-06-15T02:43:01.665Z,178.50
2023-06-15T02:44:04.880Z,181.33
2023-06-15T02:45:08.766Z,183.67
2023-06-15T02:46:13.274Z,184.00
2023-06-15T02:47:15.512Z,183.33
2023-06-15T02:48:18.941Z,183.00
2023-06-15T02:49:21.120Z,183.00
2023-06-15T02:50:24.596Z,182.67
2023-06-15T02:51:26.868Z,182.17
2023-06-15T02:52:31.661Z,183.00
2023-06-15T02:53:33.856Z,183.00
2023-06-15T02:54:37.932Z,183.00
2023-06-15T02:55:42.445Z,183.00
2023-06-15T02:56:45.667Z,185.00
2023-06-15T02:57:47.946Z,189.17
2023-06-15T02:58:55.657Z,191.00
2023-06-15T02:59:58.257Z,191.00
2023-06-15T03:01:02.029Z,191.00
2023-06-15T03:02:06.049Z,191.00
2023-06-15T03:03:10.793Z,191.50
2023-06-15T03:04:14.992Z,194.33
2023-06-15T03:05:19.794Z,195.00
2023-06-15T03:06:22.346Z,195.00
2023-06-15T03:07:26.544Z,195.00
2023-06-15T03:08:32.943Z,195.00
2023-06-15T03:09:36.316Z,195.00
2023-06-15T03:10:38.508Z,196.00
2023-06-15T03:11:41.635Z,196.00
2023-06-15T03:12:43.797Z,196.00
2023-06-15T03:13:47.660Z,196.00
2023-06-15T03:14:51.607Z,196.00
2023-06-15T03:15:54.964Z,196.00
2023-06-15T03:16:57.142Z,195.67
2023-06-15T03:18:02.554Z,195.00
2023-06-15T03:19:04.903Z,193.83
2023-06-15T03:20:12.087Z,192.17
2023-06-15T03:21:15.830Z,189.67
2023-06-15T03:22:20.008Z,189.00
2023-06-15T03:23:22.251Z,188.67
2023-06-15T03:24:27.054Z,187.33
2023-06-15T03:25:30.844Z,185.50
2023-06-15T03:26:34.454Z,184.33
2023-06-15T03:27:36.656Z,184.33
2023-06-15T03:28:41.083Z,185.00
2023-06-15T03:29:43.344Z,185.00
2023-06-15T03:30:48.197Z,185.83
2023-06-15T03:31:51.714Z,186.00
2023-06-15T03:32:54.902Z,186.00
2023-06-15T03:33:58.471Z,186.83
2023-06-15T03:35:01.660Z,187.00
2023-06-15T03:36:04.398Z,187.00
2023-06-15T03:37:07.751Z,187.83
2023-06-15T03:38:09.951Z,191.33
2023-06-15T03:39:13.315Z,194.00
2023-06-15T03:40:15.437Z,199.17
2023-06-15T03:41:18.605Z,207.00
2023-06-15T03:42:20.733Z,205.00
2023-06-15T03:43:23.862Z,203.33
2023-06-15T03:44:26.218Z,201.50
2023-06-15T03:45:29.366Z,199.67
2023-06-15T03:46:31.648Z,197.83
2023-06-15T03:47:34.748Z,197.00
2023-06-15T03:48:37.706Z,196.33
2023-06-15T03:49:42.236Z,194.17
2023-06-15T03:50:44.464Z,191.83
2023-06-15T03:51:47.723Z,189.00
2023-06-15T03:52:49.864Z,186.50
2023-06-15T03:53:53.021Z,184.33
2023-06-15T03:54:55.180Z,184.67
2023-06-15T03:55:58.497Z,186.83
2023-06-15T03:57:00.681Z,193.67
2023-06-15T03:58:04.306Z,200.50
2023-06-15T03:59:06.491Z,203.50
2023-06-15T04:00:11.984Z,204.00
2023-06-15T04:01:14.217Z,203.00
2023-06-15T04:02:17.513Z,202.33
2023-06-15T04:03:19.895Z,202.00
2023-06-15T04:04:23.225Z,201.17
2023-06-15T04:05:26.866Z,201.00
2023-06-15T04:06:31.023Z,201.00
2023-06-15T04:07:34.185Z,200.00
2023-06-15T04:08:37.721Z,199.33
2023-06-15T04:09:40.013Z,197.33
2023-06-15T04:10:43.255Z,195.17
2023-06-15T04:11:45.723Z,194.00
2023-06-15T04:15:58.331Z,198.67
2023-06-15T04:17:01.460Z,220.00
2023-06-15T04:18:04.968Z,225.67
2023-06-15T04:19:08.591Z,250.17
2023-06-15T04:20:14.787Z,226.33
2023-06-15T04:21:19.071Z,223.83
2023-06-15T04:22:22.201Z,231.00
2023-06-15T04:23:24.456Z,226.83
2023-06-15T04:24:27.671Z,225.67
2023-06-15T04:25:30.370Z,224.50
2023-06-15T04:26:34.210Z,218.50
2023-06-15T04:27:36.537Z,207.67
2023-06-15T04:28:39.778Z,203.50
2023-06-15T04:29:46.723Z,201.50
2023-06-15T04:30:56.217Z,199.83
2023-06-15T04:31:58.841Z,196.50
2023-06-15T04:33:01.977Z,194.17
2023-06-15T04:34:05.927Z,199.67
2023-06-15T04:35:09.421Z,206.50
2023-06-15T04:36:13.425Z,205.00
2023-06-15T04:37:20.045Z,204.67
2023-06-15T04:38:22.304Z,203.17
2023-06-15T04:39:26.843Z,203.17
2023-06-15T04:40:29.157Z,201.50
2023-06-15T04:41:32.465Z,201.67
2023-06-15T04:42:34.741Z,204.83
2023-06-15T04:43:37.892Z,199.50
2023-06-15T04:44:40.036Z,188.17
2023-06-15T04:45:43.116Z,179.50
2023-06-15T04:46:47.727Z,174.50
2023-06-15T04:47:50.938Z,175.17
2023-06-15T04:48:53.190Z,179.00
2023-06-15T04:49:56.416Z,181.50
2023-06-15T04:50:58.814Z,182.00
2023-06-15T04:52:02.808Z,180.83
2023-06-15T04:53:06.350Z,179.83
2023-06-15T04:54:09.702Z,197.83
2023-06-15T04:55:13.194Z,202.83
2023-06-15T04:56:16.380Z,203.33
2023-06-15T04:57:18.530Z,202.00
2023-06-15T04:58:21.710Z,200.67
2023-06-15T04:59:23.889Z,199.33
2023-06-15T05:00:27.141Z,195.33
2023-06-15T05:01:29.370Z,190.83
2023-06-15T05:02:32.540Z,191.00
2023-06-15T05:03:35.379Z,190.33
2023-06-15T05:04:38.692Z,190.33
2023-06-15T05:05:41.025Z,185.17
2023-06-15T05:06:44.345Z,181.67
2023-06-15T05:07:46.591Z,177.83
2023-06-15T05:08:52.209Z,175.00
2023-06-15T05:09:55.179Z,175.67
2023-06-15T05:10:58.494Z,196.33
2023-06-15T05:12:02.433Z,200.83
2023-06-15T05:13:04.695Z,198.67
2023-06-15T05:14:07.900Z,195.33
2023-06-15T05:15:11.591Z,187.17
2023-06-15T05:16:14.039Z,181.00
2023-06-15T05:17:17.245Z,177.17
2023-06-15T05:18:20.534Z,171.00
2023-06-15T05:19:24.079Z,165.50
2023-06-15T05:20:26.215Z,160.67
2023-06-15T05:21:29.353Z,160.83
2023-06-15T05:22:31.500Z,159.67
2023-06-15T05:23:34.739Z,156.50
2023-06-15T05:24:38.317Z,153.50
2023-06-15T05:25:44.332Z,154.00
2023-06-15T05:26:46.551Z,155.00
2023-06-15T05:27:50.402Z,156.00
2023-06-15T05:28:52.740Z,156.00
2023-06-15T05:29:55.998Z,156.67
2023-06-15T05:30:58.392Z,157.83
2023-06-15T05:32:02.073Z,170.50
2023-06-15T05:33:04.524Z,176.00
2023-06-15T05:34:07.907Z,175.50
2023-06-15T05:35:11.687Z,185.00
2023-06-15T05:36:31.628Z,187.33
2023-06-15T05:37:40.504Z,182.67
2023-06-15T05:38:42.728Z,178.67
2023-06-15T05:39:48.424Z,175.67
2023-06-15T05:40:51.704Z,171.50
2023-06-15T05:41:55.044Z,172.83
2023-06-15T05:42:58.385Z,219.00
2023-06-15T05:44:00.809Z,209.17
2023-06-15T05:45:04.555Z,196.00
2023-06-15T05:46:06.803Z,185.50
2023-06-15T05:47:12.097Z,165.33
2023-06-15T05:48:17.632Z,155.67
2023-06-15T05:49:20.992Z,158.67
2023-06-15T05:50:23.302Z,162.17
2023-06-15T05:51:26.406Z,163.67
2023-06-15T05:52:30.284Z,164.67
2023-06-15T05:53:34.089Z,166.83
2023-06-15T05:54:36.354Z,165.00
2023-06-15T05:55:43.558Z,163.00
2023-06-15T05:56:47.693Z,198.67
2023-06-15T05:57:50.949Z,201.67
2023-06-15T05:58:54.072Z,209.67
2023-06-15T05:59:57.252Z,218.67
2023-06-15T06:00:59.601Z,206.83
2023-06-15T06:02:03.103Z,188.50
2023-06-15T06:03:05.725Z,177.67
2023-06-15T06:04:09.056Z,174.67
2023-06-15T06:05:12.258Z,168.33
2023-06-15T06:06:14.809Z,182.83
2023-06-15T06:07:18.040Z,185.33
2023-06-15T06:08:22.492Z,182.17
2023-06-15T06:09:27.969Z,178.83
2023-06-15T06:10:30.182Z,166.50
2023-06-15T06:11:34.707Z,165.17
2023-06-15T06:12:36.877Z,161.83
2023-06-15T06:13:40.153Z,146.33
2023-06-15T06:14:42.348Z,138.67
2023-06-15T06:15:45.809Z,142.17
2023-06-15T06:16:48.034Z,140.00
2023-06-15T06:18:07.815Z,145.50
2023-06-15T06:19:11.525Z,141.67
2023-06-15T06:20:15.144Z,124.17
2023-06-15T06:21:17.377Z,117.17
2023-06-15T06:22:20.688Z,116.50
2023-06-15T06:23:23.197Z,123.00
2023-06-15T06:24:26.406Z,129.33
2023-06-15T06:25:28.582Z,188.83
2023-06-15T06:26:31.780Z,191.17
2023-06-15T06:27:35.317Z,168.83
2023-06-15T06:28:38.468Z,157.50
2023-06-15T06:29:41.978Z,136.17
2023-06-15T06:30:45.179Z,137.00
2023-06-15T06:31:47.412Z,166.00
2023-06-15T06:32:50.711Z,157.83
2023-06-15T06:33:53.106Z,138.83
2023-06-15T06:34:56.433Z,144.00
2023-06-15T06:35:59.644Z,151.50
2023-06-15T06:37:02.793Z,146.33
2023-06-15T06:38:05.139Z,141.67
2023-06-15T06:39:08.319Z,137.67
2023-06-15T06:40:11.149Z,142.17
2023-06-15T06:41:14.306Z,153.67
2023-06-15T06:42:16.696Z,136.50
2023-06-15T06:43:21.269Z,132.17
2023-06-15T06:44:23.476Z,186.67
2023-06-15T06:45:30.105Z,192.50
2023-06-15T06:46:32.770Z,197.33
2023-06-15T06:47:36.175Z,185.33
2023-06-15T06:48:39.205Z,159.17
2023-06-15T06:49:42.369Z,145.33
2023-06-15T06:50:44.594Z,163.17
2023-06-15T06:51:47.719Z,172.50
2023-06-15T06:52:50.904Z,202.33
2023-06-15T06:53:54.503Z,187.17
2023-06-15T06:54:56.724Z,175.17
2023-06-15T06:55:59.866Z,172.83
2023-06-15T06:57:02.726Z,184.17
2023-06-15T06:58:06.425Z,178.17
2023-06-15T06:59:11.502Z,152.50
2023-06-15T07:00:14.855Z,125.50
2023-06-15T07:01:18.020Z,121.67
2023-06-15T07:02:20.830Z,141.33
2023-06-15T07:03:25.192Z,148.67
2023-06-15T07:04:31.672Z,172.67
2023-06-15T07:05:34.065Z,178.33
2023-06-15T07:06:37.374Z,183.50
2023-06-15T07:07:40.016Z,176.33
2023-06-15T07:08:43.517Z,157.83
2023-06-15T07:09:45.787Z,145.50
2023-06-15T07:10:48.969Z,132.33
2023-06-15T07:11:51.175Z,132.50
2023-06-15T07:12:57.094Z,126.67
2023-06-15T07:13:59.508Z,123.83
2023-06-15T07:15:04.113Z,126.50
2023-06-15T07:16:07.613Z,117.83
2023-06-15T07:17:10.822Z,127.50
2023-06-15T07:18:15.809Z,130.33
2023-06-15T07:19:19.241Z,150.00
2023-06-15T07:20:21.438Z,139.67
2023-06-15T07:21:24.649Z,114.17
2023-06-15T07:22:26.830Z,109.67
2023-06-15T07:23:38.326Z,116.67
2023-06-15T07:24:52.068Z,95.50
2023-06-15T07:25:55.534Z,96.33
2023-06-15T07:27:00.280Z,110.17
2023-06-15T07:28:02.631Z,130.33
2023-06-15T07:29:05.960Z,167.00
2023-06-15T07:30:11.388Z,162.67
2023-06-15T07:31:14.516Z,148.17
2023-06-15T07:32:17.023Z,150.83
2023-06-15T07:33:20.947Z,144.83
2023-06-15T07:34:25.179Z,151.00
2023-06-15T07:35:28.410Z,160.83
2023-06-15T07:36:30.879Z,184.83
2023-06-15T07:37:34.103Z,167.33
2023-06-15T07:38:37.481Z,140.17
2023-06-15T07:39:40.702Z,114.67
2023-06-15T07:40:43.176Z,117.00
2023-06-15T07:41:46.370Z,141.83
2023-06-15T07:42:48.564Z,144.67
2023-06-15T07:43:51.760Z,122.67
2023-06-15T07:44:54.000Z,124.17
2023-06-15T07:45:58.654Z,121.00
2023-06-15T07:47:00.941Z,98.67
2023-06-15T07:48:05.469Z,113.50
2023-06-15T07:49:08.323Z,137.83
2023-06-15T07:50:11.933Z,135.00
2023-06-15T07:51:24.173Z,111.50
2023-06-15T07:52:31.861Z,113.50
2023-06-15T07:53:34.422Z,134.17
2023-06-15T07:54:37.672Z,147.83
2023-06-15T07:55:39.935Z,156.83
2023-06-15T07:56:43.539Z,145.00
2023-06-15T07:57:46.884Z,103.83
2023-06-15T07:58:49.260Z,91.67
2023-06-15T07:59:52.492Z,95.33
2023-06-15T08:00:55.737Z,95.83
2023-06-15T08:01:59.347Z,101.17
2023-06-15T08:03:02.796Z,104.67
2023-06-15T08:04:06.825Z,98.00
2023-06-15T08:05:12.097Z,83.67
2023-06-15T08:06:17.338Z,66.17
2023-06-15T08:07:22.008Z,60.17
2023-06-15T08:08:24.153Z,71.00
2023-06-15T08:09:27.552Z,82.50
2023-06-15T08:10:30.841Z,71.33
2023-06-15T08:11:34.038Z,51.83
2023-06-15T08:12:37.343Z,48.17
2023-06-15T08:13:40.074Z,54.00
2023-06-15T08:14:43.286Z,54.83
2023-06-15T08:15:45.678Z,52.17
2023-06-15T08:16:49.645Z,46.83
2023-06-15T08:17:55.271Z,49.33
2023-06-15T08:18:58.449Z,84.50
2023-06-15T08:20:01.384Z,115.00
2023-06-15T08:21:04.599Z,114.00
2023-06-15T08:22:07.258Z,95.33
2023-06-15T08:23:10.353Z,92.17
2023-06-15T08:24:13.753Z,215.17
2023-06-15T08:25:17.113Z,215.83
2023-06-15T08:26:20.305Z,133.00
2023-06-15T08:27:22.480Z,101.83
2023-06-15T08:28:25.851Z,81.50
2023-06-15T08:29:28.065Z,68.83
2023-06-15T08:30:31.221Z,51.83
2023-06-15T08:31:38.563Z,45.50
2023-06-15T08:32:42.683Z,63.00
2023-06-15T08:33:46.338Z,69.67
2023-06-15T08:34:50.382Z,83.83
2023-06-15T08:35:52.710Z,86.17
2023-06-15T08:36:56.260Z,84.67
2023-06-15T08:37:58.442Z,81.17
2023-06-15T08:39:01.864Z,67.33
2023-06-15T08:40:07.504Z,35.50
2023-06-15T08:41:13.751Z,149.33
2023-06-15T08:42:19.370Z,222.17
2023-06-15T08:43:21.890Z,125.67
2023-06-15T08:44:25.233Z,94.17
2023-06-15T08:45:34.094Z,72.33
2023-06-15T08:46:38.239Z,75.83
2023-06-15T08:47:41.338Z,52.67
2023-06-15T08:48:49.478Z,42.00
2023-06-15T08:49:54.466Z,40.00
2023-06-15T08:50:56.731Z,47.83
2023-06-15T08:52:01.122Z,57.50
2023-06-15T08:53:03.585Z,72.33
2023-06-15T08:54:09.653Z,75.67
2023-06-15T08:55:17.203Z,43.17
2023-06-15T08:56:20.927Z,53.17
2023-06-15T08:57:23.311Z,72.50
2023-06-15T08:58:26.700Z,81.17
2023-06-15T08:59:30.462Z,104.00
2023-06-15T09:00:33.775Z,164.67
2023-06-15T09:01:41.653Z,105.00
2023-06-15T09:02:47.683Z,60.83
2023-06-15T09:03:56.413Z,37.67
2023-06-15T09:04:59.957Z,34.17
2023-06-15T09:06:02.473Z,34.83
2023-06-15T09:07:06.575Z,26.67
2023-06-15T09:08:09.213Z,21.50
2023-06-15T09:09:13.512Z,31.33
2023-06-15T09:10:17.206Z,62.00
2023-06-15T09:11:21.192Z,66.33
2023-06-15T09:12:24.743Z,79.33
2023-06-15T09:13:32.671Z,119.00
2023-06-15T09:14:39.988Z,82.50
2023-06-15T09:15:46.873Z,36.33
2023-06-15T09:16:53.598Z,16.33
2023-06-15T09:17:56.955Z,12.33
2023-06-15T09:19:02.413Z,17.17
2023-06-15T09:20:06.654Z,18.67
2023-06-15T09:21:13.425Z,28.17
2023-06-15T09:22:16.814Z,31.50
2023-06-15T09:23:19.276Z,38.00
2023-06-15T09:24:25.655Z,37.67
2023-06-15T09:25:30.140Z,26.67
2023-06-15T09:26:33.627Z,26.33
2023-06-15T09:27:36.012Z,27.50
2023-06-15T09:28:46.862Z,27.33
2023-06-15T09:30:20.565Z,29.33
2023-06-15T09:31:31.720Z,35.67
2023-06-15T09:32:35.691Z,43.00
2023-06-15T09:33:38.918Z,43.67
2023-06-15T09:34:42.743Z,39.00
2023-06-15T09:35:58.548Z,98.83
2023-06-15T09:37:01.544Z,150.67
2023-06-15T09:38:05.320Z,84.83
2023-06-15T09:39:10.417Z,76.17
2023-06-15T09:40:14.464Z,55.00
2023-06-15T09:41:16.921Z,33.33
2023-06-15T09:42:20.837Z,48.00
2023-06-15T09:43:23.772Z,117.33
2023-06-15T09:44:27.804Z,109.67
2023-06-15T09:45:30.573Z,98.17
2023-06-15T09:46:33.775Z,88.50
2023-06-15T09:47:36.367Z,56.67
2023-06-15T09:48:40.302Z,23.83
2023-06-15T09:49:45.967Z,24.67
2023-06-15T09:50:55.210Z,28.33
2023-06-15T09:51:57.671Z,21.50
2023-06-15T09:53:02.687Z,14.50
2023-06-15T09:54:05.793Z,15.67
2023-06-15T09:55:10.609Z,28.17
2023-06-15T09:56:28.688Z,37.33
2023-06-15T09:57:34.121Z,65.00
2023-06-15T09:58:36.808Z,205.67
2023-06-15T09:59:41.377Z,221.67
2023-06-15T10:00:43.981Z,234.50
2023-06-15T10:01:49.657Z,211.83
2023-06-15T10:02:54.845Z,174.00
2023-06-15T10:03:59.145Z,118.67
2023-06-15T10:05:04.759Z,60.50
2023-06-15T10:06:14.434Z,31.17
2023-06-15T10:07:21.367Z,56.83
2023-06-15T10:08:27.373Z,94.33
2023-06-15T10:09:33.614Z,94.17
2023-06-15T10:10:38.805Z,72.33
2023-06-15T10:11:43.036Z,31.50
2023-06-15T10:12:51.059Z,25.00
2023-06-15T10:13:56.174Z,22.00
2023-06-15T10:15:05.961Z,17.00
2023-06-15T10:16:11.925Z,18.67
2023-06-15T10:17:17.470Z,29.50
2023-06-15T10:18:23.464Z,51.17
2023-06-15T10:19:28.978Z,56.83
2023-06-15T10:20:34.770Z,43.33
2023-06-15T10:21:40.021Z,21.67
2023-06-15T10:22:47.658Z,13.50
2023-06-15T10:23:55.438Z,11.50
2023-06-15T10:24:59.129Z,15.50
2023-06-15T10:26:02.076Z,19.50
2023-06-15T10:27:08.574Z,17.00
2023-06-15T10:28:14.133Z,14.67
2023-06-15T10:29:21.513Z,12.50
2023-06-15T10:30:32.630Z,15.67
2023-06-15T10:31:43.697Z,15.00
2023-06-15T10:32:52.465Z,11.67
2023-06-15T10:34:00.399Z,8.00
2023-06-15T10:35:08.766Z,6.33
2023-06-15T10:36:17.157Z,5.17
2023-06-15T10:37:26.119Z,5.00
2023-06-15T10:38:38.081Z,6.33
2023-06-15T10:39:45.657Z,14.67
2023-06-15T10:40:50.885Z,24.50
2023-06-15T10:41:54.272Z,24.00
2023-06-15T10:42:59.261Z,38.67
2023-06-15T10:44:02.734Z,59.33
2023-06-15T10:45:30.607Z,98.50
2023-06-15T10:46:34.932Z,133.50
2023-06-15T10:47:50.124Z,159.00
2023-06-15T10:48:54.486Z,83.50
2023-06-15T10:49:58.470Z,49.67
2023-06-15T10:51:06.688Z,99.33
2023-06-15T10:52:15.224Z,171.33
2023-06-15T10:53:25.154Z,180.17
2023-06-15T10:54:29.627Z,251.00
2023-06-15T10:55:32.786Z,246.50
2023-06-15T10:56:36.216Z,151.50
2023-06-15T10:57:38.614Z,104.00
2023-06-15T10:58:54.698Z,50.17
2023-06-15T10:59:58.630Z,56.33
2023-06-15T11:01:09.863Z,31.00
2023-06-15T11:02:51.193Z,13.17
2023-06-15T11:03:55.421Z,6.83
2023-06-15T11:05:10.826Z,118.17
2023-06-15T11:06:19.435Z,191.83
2023-06-15T11:07:29.913Z,154.33
2023-06-15T11:08:35.621Z,97.50
2023-06-15T11:09:42.523Z,175.33
2023-06-15T11:10:44.991Z,284.33
2023-06-15T11:11:48.268Z,203.33
2023-06-15T11:13:00.325Z,123.67
2023-06-15T11:14:07.908Z,50.67
2023-06-15T11:15:16.446Z,26.67
2023-06-15T11:16:26.846Z,126.17
2023-06-15T11:17:30.250Z,159.67
2023-06-15T11:18:32.614Z,90.17
2023-06-15T11:19:44.467Z,81.33
2023-06-15T11:21:00.970Z,119.33
2023-06-15T11:22:08.256Z,59.83
2023-06-15T11:23:13.611Z,29.00
2023-06-15T11:24:19.040Z,38.83
2023-06-15T11:25:29.542Z,90.17
2023-06-15T11:26:50.326Z,57.00
2023-06-15T11:27:56.651Z,75.00
2023-06-15T11:29:03.786Z,89.83
2023-06-15T11:30:09.708Z,55.17
2023-06-15T11:31:13.324Z,67.00
2023-06-15T11:32:15.634Z,245.67
2023-06-15T11:33:28.243Z,254.83
2023-06-15T11:34:31.855Z,147.67
2023-06-15T11:35:34.012Z,131.67
2023-06-15T11:36:38.902Z,75.17
2023-06-15T11:37:42.093Z,34.83
2023-06-15T11:38:45.629Z,59.00
2023-06-15T11:39:48.881Z,303.17
2023-06-15T11:40:51.281Z,300.50
2023-06-15T11:41:57.452Z,168.00
2023-06-15T11:43:00.168Z,126.17
2023-06-15T11:44:03.465Z,97.17
2023-06-15T11:45:06.618Z,44.83
2023-06-15T11:46:13.628Z,40.67
2023-06-15T11:47:15.793Z,33.50
2023-06-15T11:48:19.087Z,18.50
2023-06-15T11:49:22.840Z,101.83
2023-06-15T11:50:25.215Z,158.50
2023-06-15T11:51:28.528Z,133.50
2023-06-15T11:52:31.702Z,163.83
2023-06-15T11:53:34.484Z,306.00
2023-06-15T11:54:50.133Z,179.17
2023-06-15T11:55:56.052Z,150.50
2023-06-15T11:56:58.687Z,170.67
2023-06-15T11:58:01.989Z,211.17
2023-06-15T11:59:04.384Z,217.17
2023-06-15T12:00:09.378Z,262.17
2023-06-15T12:01:13.232Z,212.50
2023-06-15T12:02:18.090Z,247.17
2023-06-15T12:03:20.512Z,151.00
2023-06-15T12:04:23.858Z,59.00
2023-06-15T12:05:26.364Z,24.83
2023-06-15T12:06:31.171Z,99.67
2023-06-15T12:07:38.547Z,192.17
2023-06-15T12:08:42.731Z,411.17
2023-06-15T12:09:47.441Z,270.00
2023-06-15T12:10:50.093Z,173.67
2023-06-15T12:11:55.443Z,97.83
2023-06-15T12:12:59.553Z,44.50
2023-06-15T12:14:03.050Z,26.83
2023-06-15T12:15:08.067Z,20.17
2023-06-15T12:16:12.655Z,17.00
2023-06-15T12:17:16.806Z,16.83
2023-06-15T12:18:20.379Z,19.50
2023-06-15T12:19:23.524Z,30.33
2023-06-15T12:20:28.694Z,29.33
2023-06-15T12:21:33.694Z,39.33
2023-06-15T12:22:37.958Z,71.00
2023-06-15T12:23:41.533Z,177.33
2023-06-15T12:24:43.764Z,150.67
2023-06-15T12:25:49.589Z,129.17
2023-06-15T12:26:52.881Z,126.17
2023-06-15T12:27:56.396Z,123.67
2023-06-15T12:28:58.571Z,83.00
2023-06-15T12:30:15.446Z,37.67
2023-06-15T12:31:17.797Z,81.50
2023-06-15T12:32:24.827Z,107.17
2023-06-15T12:33:28.816Z,59.50
2023-06-15T12:34:32.493Z,37.00
2023-06-15T12:35:38.779Z,29.33
2023-06-15T12:36:42.601Z,216.67
2023-06-15T12:37:50.501Z,318.50
2023-06-15T12:38:54.223Z,305.83
2023-06-15T12:39:56.534Z,250.67
2023-06-15T12:41:01.984Z,313.17
2023-06-15T12:42:05.585Z,351.83
2023-06-15T12:43:08.141Z,362.00
2023-06-15T12:44:11.585Z,306.50
2023-06-15T12:45:14.911Z,189.67
2023-06-15T12:46:18.495Z,100.50
2023-06-15T12:47:20.753Z,83.50
2023-06-15T12:48:24.260Z,53.83
2023-06-15T12:49:26.473Z,36.83
2023-06-15T12:50:31.034Z,25.67
2023-06-15T12:51:34.295Z,41.00
2023-06-15T12:52:36.457Z,28.83
2023-06-15T12:53:39.679Z,14.67
2023-06-15T12:54:41.837Z,8.67
2023-06-15T12:55:45.452Z,10.33
2023-06-15T12:56:50.098Z,8.33
2023-06-15T12:57:55.533Z,20.67
2023-06-15T12:58:59.115Z,64.33
2023-06-15T13:00:01.291Z,74.50
2023-06-15T13:01:05.059Z,68.50
2023-06-15T13:02:08.573Z,108.33
2023-06-15T13:03:13.167Z,157.50
2023-06-15T13:04:15.710Z,182.67
2023-06-15T13:05:19.423Z,115.33
2023-06-15T13:06:22.649Z,100.83
2023-06-15T13:07:25.623Z,167.00
2023-06-15T13:08:28.961Z,123.50
2023-06-15T13:09:31.142Z,113.00
2023-06-15T13:10:35.504Z,124.33
2023-06-15T13:11:39.289Z,73.83
2023-06-15T13:12:44.422Z,28.83
2023-06-15T13:13:47.650Z,15.17
2023-06-15T13:14:49.885Z,10.50
2023-06-15T13:15:53.924Z,8.00
2023-06-15T13:16:56.641Z,61.00
2023-06-15T13:17:59.913Z,229.17
2023-06-15T13:19:03.687Z,231.50
2023-06-15T13:20:08.384Z,174.83
2023-06-15T13:21:12.876Z,262.17
2023-06-15T13:22:15.635Z,268.17
2023-06-15T13:23:18.867Z,362.00
2023-06-15T13:24:21.773Z,303.50
2023-06-15T13:25:24.988Z,219.67
2023-06-15T13:26:28.244Z,200.50
2023-06-15T13:27:30.603Z,133.17
2023-06-15T13:28:35.300Z,168.83
2023-06-15T13:29:37.561Z,153.33
2023-06-15T13:30:40.733Z,216.00
2023-06-15T13:31:42.969Z,244.33
2023-06-15T13:32:47.934Z,191.50